Time;durP1;ratioP1;P1;durP2;ratioP2;P2;SDS_P1;SDS_P2;PMS_P1;PMS_P2;Temp;Humidity;BMP_temperature;BMP_pressure;BME280_temperature;BME280_humidity;BME280_pressure;Samples;Min_cycle;Max_cycle;Signal;HPM_P1;HPM_P2
2022/08/10 00:01:38;;;;;;;1999.90;999.90;;;14.40;99.90;;;;;;4924398;29;20401;-80
2022/08/10 00:04:06;;;;;;;1999.90;999.90;;;14.40;99.90;;;;;;4938780;29;20453;-81
2022/08/10 00:06:35;;;;;;;1999.90;999.90;;;14.40;99.90;;;;;;4943646;28;20402;-80
2022/08/10 00:09:04;;;;;;;1999.90;999.90;;;14.30;99.90;;;;;;4932294;28;20392;-81
2022/08/10 00:11:31;;;;;;;1999.90;999.90;;;14.30;99.90;;;;;;4916041;29;20387;-81
2022/08/10 00:13:59;;;;;;;1999.90;999.90;;;14.30;99.90;;;;;;4940626;28;20406;-81
2022/08/10 00:16:26;;;;;;;1999.90;999.90;;;14.20;99.90;;;;;;4924580;29;20410;-80
2022/08/10 00:18:54;;;;;;;1999.90;999.90;;;14.20;99.90;;;;;;4924798;29;20930;-82
2022/08/10 00:21:22;;;;;;;1999.90;999.90;;;14.20;99.90;;;;;;4929817;29;20776;-80
2022/08/10 00:23:53;;;;;;;1999.90;999.90;;;14.20;99.90;;;;;;4938724;28;20426;-81
2022/08/10 00:26:21;;;;;;;1999.90;999.90;;;14.20;99.90;;;;;;4940071;29;21097;-80
2022/08/10 00:28:48;;;;;;;1999.90;999.90;;;14.20;99.90;;;;;;4925435;29;20432;-81
2022/08/10 00:31:16;;;;;;;1999.90;999.90;;;14.20;99.90;;;;;;4926242;29;20407;-81
2022/08/10 00:33:43;;;;;;;1999.90;999.90;;;14.20;99.90;;;;;;4926794;28;20417;-81
2022/08/10 00:36:11;;;;;;;1999.90;999.90;;;14.20;99.90;;;;;;4936057;28;20418;-81
2022/08/10 00:38:38;;;;;;;1999.90;999.90;;;14.10;99.90;;;;;;4924562;29;20506;-81
2022/08/10 00:41:06;;;;;;;1999.90;999.90;;;14.10;99.90;;;;;;4938673;28;20419;-80
2022/08/10 00:43:33;;;;;;;1999.90;999.90;;;14.10;99.90;;;;;;4924448;29;20483;-81
2022/08/10 00:46:01;;;;;;;1999.90;999.90;;;14.00;99.90;;;;;;4925464;29;20395;-81
2022/08/10 00:48:29;;;;;;;1999.90;999.90;;;13.90;99.90;;;;;;4925956;29;20460;-82
2022/08/10 00:50:58;;;;;;;1999.90;999.90;;;13.90;99.90;;;;;;4919579;29;20741;-82
2022/08/10 00:53:27;;;;;;;1999.90;999.90;;;13.90;99.90;;;;;;4939295;29;20412;-81
2022/08/10 00:55:55;;;;;;;1999.90;999.90;;;13.90;99.90;;;;;;4940299;29;20969;-80
2022/08/10 00:58:44;;;;;;;1999.90;999.90;;;13.90;99.90;;;;;;4922000;29;20445;-81
2022/08/10 01:01:12;;;;;;;1999.90;999.90;;;13.90;99.90;;;;;;4935253;29;20430;-81
2022/08/10 01:04:01;;;;;;;1999.90;999.90;;;13.90;99.90;;;;;;4926334;29;20941;-80
2022/08/10 01:07:07;;;;;;;1999.90;999.90;;;13.80;99.90;;;;;;4932457;28;20511;-81
2022/08/10 01:09:58;;;;;;;1999.90;999.90;;;13.90;99.90;;;;;;4923971;29;20399;-81
2022/08/10 01:12:48;;;;;;;1999.90;999.90;;;13.80;99.90;;;;;;4926005;29;20456;-80
2022/08/10 01:15:35;;;;;;;1999.90;999.90;;;13.80;99.90;;;;;;4925832;29;20500;-80
2022/08/10 01:18:20;;;;;;;1999.90;999.90;;;13.80;99.90;;;;;;4936013;28;20418;-81
2022/08/10 01:20:57;;;;;;;1999.90;999.90;;;13.80;99.90;;;;;;4923092;29;20757;-80
2022/08/10 01:23:49;;;;;;;1999.90;999.90;;;13.80;99.90;;;;;;4942579;28;20469;-81
2022/08/10 01:26:35;;;;;;;1999.90;999.90;;;13.80;99.90;;;;;;4925934;29;20930;-81
2022/08/10 01:29:16;;;;;;;1999.90;999.90;;;13.80;99.90;;;;;;4921848;29;20433;-81
2022/08/10 01:31:50;;;;;;;1999.90;999.90;;;13.80;99.90;;;;;;4919411;29;20418;-81
2022/08/10 01:34:23;;;;;;;1999.90;999.90;;;13.80;99.90;;;;;;4940392;28;20473;-81
2022/08/10 01:36:59;;;;;;;1999.90;999.90;;;13.80;99.90;;;;;;4940360;28;20463;-81
2022/08/10 01:39:36;;;;;;;1999.90;999.90;;;13.80;99.90;;;;;;4940056;28;20418;-81
2022/08/10 01:42:05;;;;;;;1999.90;999.90;;;13.80;99.90;;;;;;4924015;29;20489;-81
2022/08/10 01:44:44;;;;;;;1999.90;999.90;;;13.80;99.90;;;;;;4923804;29;20413;-80
2022/08/10 01:50:32;;;;;;;1999.90;999.90;;;13.70;99.90;;;;;;4920833;29;20414;-82
2022/08/10 01:53:27;;;;;;;1999.90;999.90;;;13.70;99.90;;;;;;4924540;29;20419;-80
2022/08/10 01:56:11;;;;;;;1999.90;999.90;;;13.70;99.90;;;;;;4926965;29;20398;-81
2022/08/10 01:58:41;;;;;;;1999.90;999.90;;;13.60;99.90;;;;;;4925015;29;20403;-80
2022/08/10 02:01:12;;;;;;;1999.90;999.90;;;13.60;99.90;;;;;;4929174;29;20403;-80
2022/08/10 02:03:46;;;;;;;1999.90;999.90;;;13.70;99.90;;;;;;4920282;29;20423;-81
2022/08/10 02:06:37;;;;;;;1999.90;999.90;;;13.60;99.90;;;;;;4936815;28;20417;-80
2022/08/10 02:09:06;;;;;;;1999.90;999.90;;;13.60;99.90;;;;;;4923680;29;20903;-81
2022/08/10 02:11:36;;;;;;;1999.90;999.90;;;13.70;99.90;;;;;;4918228;29;20395;-81
2022/08/10 02:14:33;;;;;;;1999.90;999.90;;;13.60;99.90;;;;;;4923139;29;20872;-80
2022/08/10 02:17:09;;;;;;;1999.90;999.90;;;13.70;99.90;;;;;;4922825;29;20876;-81
2022/08/10 02:20:02;;;;;;;1999.90;999.90;;;13.60;99.90;;;;;;4923477;29;20949;-81
2022/08/10 02:22:30;;;;;;;1999.90;999.90;;;13.60;99.90;;;;;;4923054;29;20418;-80
2022/08/10 02:25:10;;;;;;;1999.90;999.90;;;13.60;99.90;;;;;;4926770;29;20450;-80
2022/08/10 02:27:58;;;;;;;1999.90;999.90;;;13.60;99.90;;;;;;4924234;29;20529;-80
2022/08/10 02:30:27;;;;;;;1999.90;999.90;;;13.60;99.90;;;;;;4923273;29;20410;-81
2022/08/10 02:32:57;;;;;;;1999.90;999.90;;;13.60;99.90;;;;;;4923317;29;21050;-81
2022/08/10 02:35:27;;;;;;;1999.90;999.90;;;13.60;99.90;;;;;;4920270;29;20420;-81
2022/08/10 02:38:18;;;;;;;1999.90;999.90;;;13.60;99.90;;;;;;4929048;29;20950;-81
2022/08/10 02:40:49;;;;;;;1999.90;999.90;;;13.50;99.90;;;;;;4930895;29;20417;-80
2022/08/10 02:43:53;;;;;;;1999.90;999.90;;;13.50;99.90;;;;;;4928611;29;20414;-82
2022/08/10 02:46:48;;;;;;;1999.90;999.90;;;13.50;99.90;;;;;;4927702;29;20390;-81
2022/08/10 02:49:31;;;;;;;1999.90;999.90;;;13.50;99.90;;;;;;4926247;29;20418;-80
2022/08/10 02:52:04;;;;;;;1999.90;999.90;;;13.50;99.90;;;;;;4929631;29;20433;-81
2022/08/10 02:54:42;;;;;;;1999.90;999.90;;;13.50;99.90;;;;;;4925600;29;20409;-81
2022/08/10 02:57:18;;;;;;;1999.90;999.90;;;13.50;99.90;;;;;;4937159;28;20423;-81
2022/08/10 02:59:49;;;;;;;1999.90;999.90;;;13.40;99.90;;;;;;4926283;29;20782;-81
2022/08/10 03:02:48;;;;;;;1999.90;999.90;;;13.40;99.90;;;;;;4951600;28;20414;-81
2022/08/10 03:05:19;;;;;;;1999.90;999.90;;;13.40;99.90;;;;;;4932379;29;20461;-81
2022/08/10 03:07:59;;;;;;;1999.90;999.90;;;13.40;99.90;;;;;;4945326;28;20489;-81
2022/08/10 03:10:30;;;;;;;1999.90;999.90;;;13.30;99.90;;;;;;4919212;29;20412;-81
2022/08/10 03:13:05;;;;;;;1999.90;999.90;;;13.30;99.90;;;;;;4917992;29;21033;-81
2022/08/10 03:15:35;;;;;;;1999.90;999.90;;;13.30;99.90;;;;;;4940410;29;20399;-80
2022/08/10 03:18:04;;;;;;;1999.90;999.90;;;13.30;99.90;;;;;;4925987;29;20483;-80
2022/08/10 03:20:36;;;;;;;1999.90;999.90;;;13.30;99.90;;;;;;4924559;29;20401;-79
2022/08/10 03:23:17;;;;;;;1999.90;999.90;;;13.30;99.90;;;;;;4924084;29;20418;-81
2022/08/10 03:25:48;;;;;;;1999.90;999.90;;;13.30;99.90;;;;;;4931628;29;20804;-81
2022/08/10 03:28:23;;;;;;;1999.90;999.90;;;13.30;99.90;;;;;;4932736;29;20410;-80
2022/08/10 03:30:52;;;;;;;1999.90;999.90;;;13.20;99.90;;;;;;4926358;29;20930;-81
2022/08/10 03:33:21;;;;;;;1999.90;999.90;;;13.30;99.90;;;;;;4942714;28;20903;-82
2022/08/10 03:35:50;;;;;;;1999.90;999.90;;;13.20;99.90;;;;;;4927508;29;20470;-80
2022/08/10 03:38:39;;;;;;;1999.90;999.90;;;13.20;99.90;;;;;;4925731;29;20414;-80
2022/08/10 03:41:11;;;;;;;1999.90;999.90;;;13.20;99.90;;;;;;4940147;28;20544;-81
2022/08/10 03:43:47;;;;;;;1999.90;999.90;;;13.30;99.90;;;;;;4940623;28;20909;-82
2022/08/10 03:46:20;;;;;;;1999.90;999.90;;;13.20;99.90;;;;;;4919736;29;20421;-80
2022/08/10 03:48:52;;;;;;;1999.90;999.90;;;13.30;99.90;;;;;;4928261;29;20412;-81
2022/08/10 03:51:21;;;;;;;1999.90;999.90;;;13.30;99.90;;;;;;4923921;29;20435;-81
2022/08/10 03:53:49;;;;;;;1999.90;999.90;;;13.30;99.90;;;;;;4941888;28;20414;-81
2022/08/10 03:56:38;;;;;;;1999.90;999.90;;;13.20;99.90;;;;;;4918935;29;20443;-80
2022/08/10 03:59:08;;;;;;;1999.90;999.90;;;13.20;99.90;;;;;;4926541;29;20410;-80
2022/08/10 04:01:36;;;;;;;1999.90;999.90;;;13.20;99.90;;;;;;4928407;29;20916;-82
2022/08/10 04:04:24;;;;;;;1999.90;999.90;;;13.20;99.90;;;;;;4929494;29;20414;-80
2022/08/10 04:06:54;;;;;;;1999.90;999.90;;;13.20;99.90;;;;;;4921022;29;20498;-81
2022/08/10 04:09:27;;;;;;;1999.90;999.90;;;13.20;99.90;;;;;;4925531;29;20415;-82
2022/08/10 04:12:15;;;;;;;1999.90;999.90;;;13.20;99.90;;;;;;4941624;29;20407;-81
2022/08/10 04:14:43;;;;;;;1999.90;999.90;;;13.20;99.90;;;;;;4927809;28;20423;-81
2022/08/10 04:17:20;;;;;;;1999.90;999.90;;;13.20;99.90;;;;;;4940099;28;20491;-81
2022/08/10 04:20:30;;;;;;;1999.90;999.90;;;13.30;99.90;;;;;;4942948;28;20408;-80
2022/08/10 04:23:10;;;;;;;1999.90;999.90;;;13.30;99.90;;;;;;4922307;29;20433;-81
2022/08/10 04:25:39;;;;;;;1999.90;999.90;;;13.20;99.90;;;;;;4924851;29;20410;-81
2022/08/10 04:28:09;;;;;;;1999.90;999.90;;;13.20;99.90;;;;;;4924716;29;20416;-81
2022/08/10 04:30:38;;;;;;;1999.90;999.90;;;13.20;99.90;;;;;;4921477;29;20515;-80
2022/08/10 04:33:08;;;;;;;1999.90;999.90;;;13.30;99.90;;;;;;4918880;29;20407;-80
2022/08/10 04:35:37;;;;;;;1999.90;999.90;;;13.20;99.90;;;;;;4944811;28;20427;-81
2022/08/10 04:38:05;;;;;;;1999.90;999.90;;;13.20;99.90;;;;;;4922803;29;20537;-81
2022/08/10 04:40:33;;;;;;;1999.90;999.90;;;13.20;99.90;;;;;;4941935;28;20419;-81
2022/08/10 04:43:03;;;;;;;1999.90;999.90;;;13.30;99.90;;;;;;4930656;29;20416;-80
2022/08/10 04:45:41;;;;;;;1999.90;999.90;;;13.20;99.90;;;;;;4930575;29;20427;-81
2022/08/10 04:48:19;;;;;;;1999.90;999.90;;;13.30;99.90;;;;;;4922950;29;20409;-81
2022/08/10 04:51:08;;;;;;;1999.90;999.90;;;13.30;99.90;;;;;;4915840;29;20396;-81
2022/08/10 04:53:46;;;;;;;1999.90;999.90;;;13.40;99.90;;;;;;4942218;28;20428;-81
2022/08/10 04:56:35;;;;;;;1999.90;999.90;;;13.40;99.90;;;;;;4932430;29;20419;-80
2022/08/10 04:59:05;;;;;;;1999.90;999.90;;;13.40;99.90;;;;;;4939148;28;20494;-81
2022/08/10 05:01:33;;;;;;;1999.90;999.90;;;13.50;99.90;;;;;;4925440;29;20398;-82
2022/08/10 05:04:21;;;;;;;1999.90;999.90;;;13.50;99.90;;;;;;4940525;28;20505;-82
2022/08/10 05:07:07;;;;;;;1999.90;999.90;;;13.60;99.90;;;;;;4936678;28;20405;-81
2022/08/10 05:09:36;;;;;;;1999.90;999.90;;;13.60;99.90;;;;;;4928381;29;20441;-81
2022/08/10 05:12:26;;;;;;;1999.90;999.90;;;13.60;99.90;;;;;;4938422;28;20417;-81
2022/08/10 05:14:53;;;;;;;1999.90;999.90;;;13.70;99.90;;;;;;4936470;28;20414;-81
2022/08/10 05:17:22;;;;;;;1999.90;999.90;;;13.80;99.90;;;;;;4941268;28;20903;-84
2022/08/10 05:19:50;;;;;;;1999.90;999.90;;;13.80;99.90;;;;;;4922986;29;20479;-83
2022/08/10 05:22:34;;;;;;;1999.90;999.90;;;13.80;99.90;;;;;;4922646;29;20889;-83
2022/08/10 05:25:04;;;;;;;1964.15;999.90;;;13.90;99.90;;;;;;4922935;29;20415;-84
2022/08/10 05:27:33;;;;;;;1999.90;999.90;;;14.00;99.90;;;;;;4921345;29;20436;-83
2022/08/10 05:30:01;;;;;;;1999.90;999.90;;;14.10;99.90;;;;;;4938504;28;20898;-83
2022/08/10 05:32:31;;;;;;;1999.90;999.90;;;14.10;99.90;;;;;;4930421;29;20502;-82
2022/08/10 05:35:20;;;;;;;1999.90;999.90;;;14.20;99.90;;;;;;4922134;29;20469;-83
2022/08/10 05:37:50;;;;;;;1999.90;999.90;;;14.20;99.90;;;;;;4923621;29;20399;-84
2022/08/10 05:40:39;;;;;;;1999.90;999.90;;;14.30;99.90;;;;;;4924482;29;20485;-83
2022/08/10 05:43:14;;;;;;;1999.90;999.90;;;14.30;99.90;;;;;;4932385;29;20942;-83
2022/08/10 05:45:43;;;;;;;1999.90;999.90;;;14.40;99.90;;;;;;4920353;29;20456;-83
2022/08/10 05:48:31;;;;;;;1999.90;999.90;;;14.50;99.90;;;;;;4924381;29;20756;-83
2022/08/10 05:51:19;;;;;;;1999.90;999.90;;;14.50;99.90;;;;;;4933027;28;20898;-83
2022/08/10 05:53:48;;;;;;;1999.90;999.90;;;14.60;99.90;;;;;;4918696;29;20898;-83
2022/08/10 05:56:36;;;;;;;1999.90;999.90;;;14.60;99.90;;;;;;4935537;28;20423;-84
2022/08/10 05:59:30;;;;;;;1999.90;999.90;;;14.70;99.90;;;;;;4935539;29;20399;-83
2022/08/10 06:02:27;;;;;;;1999.90;999.90;;;14.90;99.90;;;;;;4933889;28;20410;-83
2022/08/10 06:05:16;;;;;;;1999.90;999.90;;;14.90;99.90;;;;;;4930112;29;20420;-84
2022/08/10 06:07:59;;;;;;;1995.88;999.90;;;14.90;99.90;;;;;;4923748;29;21179;-83
2022/08/10 06:10:29;;;;;;;1999.90;999.90;;;15.10;99.90;;;;;;4938358;28;20465;-84
2022/08/10 06:16:01;;;;;;;1999.90;999.90;;;15.10;99.90;;;;;;4925296;29;20417;-83
2022/08/10 06:18:29;;;;;;;1999.90;999.90;;;15.20;99.90;;;;;;4941178;29;20405;-84
2022/08/10 06:20:59;;;;;;;1936.95;999.90;;;15.20;99.90;;;;;;4934125;29;20504;-84
2022/08/10 06:23:31;;;;;;;1680.18;999.90;;;15.50;99.90;;;;;;4942701;28;20440;-84
2022/08/10 06:25:59;;;;;;;1654.63;999.90;;;15.40;99.90;;;;;;4918344;29;20407;-84
2022/08/10 06:28:57;;;;;;;1535.30;999.90;;;15.60;99.90;;;;;;4928666;29;20396;-82
2022/08/10 06:31:33;;;;;;;1953.63;999.90;;;15.80;99.90;;;;;;4926854;29;20751;-83
2022/08/10 06:34:40;;;;;;;1999.90;999.90;;;15.80;99.90;;;;;;4943319;29;20488;-82
2022/08/10 06:37:09;;;;;;;1999.90;999.90;;;15.80;99.90;;;;;;4929034;29;20416;-82
2022/08/10 06:39:37;;;;;;;1565.60;999.90;;;15.80;99.90;;;;;;4927778;29;20425;-83
2022/08/10 06:42:15;;;;;;;1729.82;999.90;;;15.90;99.90;;;;;;4928075;29;20413;-83
2022/08/10 06:45:00;;;;;;;1533.97;999.90;;;16.00;99.90;;;;;;4936029;28;20411;-83
2022/08/10 06:47:46;;;;;;;1582.27;999.90;;;16.10;99.90;;;;;;4928343;29;20405;-82
2022/08/10 06:50:19;;;;;;;1428.18;999.90;;;16.20;99.90;;;;;;4929852;29;20416;-82
2022/08/10 06:53:14;;;;;;;1612.95;999.90;;;16.20;99.90;;;;;;4925325;29;20405;-84
2022/08/10 06:55:47;;;;;;;1626.97;999.90;;;16.10;99.90;;;;;;4921535;29;20416;-84
2022/08/10 06:58:33;;;;;;;1456.67;999.90;;;16.20;99.90;;;;;;4922748;29;20505;-83
2022/08/10 07:01:04;;;;;;;1443.28;999.90;;;16.30;99.90;;;;;;4942453;28;20441;-83
2022/08/10 07:03:37;;;;;;;1896.20;999.90;;;16.40;99.90;;;;;;4937364;28;20422;-83
2022/08/10 07:06:06;;;;;;;1999.90;999.90;;;16.60;99.90;;;;;;4929441;29;20411;-84
2022/08/10 07:08:35;;;;;;;1475.43;999.90;;;16.60;99.90;;;;;;4921881;29;20409;-83
2022/08/10 07:11:04;;;;;;;1632.10;999.90;;;16.60;99.90;;;;;;4928353;29;20418;-83
2022/08/10 07:13:39;;;;;;;1436.68;999.90;;;16.70;99.90;;;;;;4917320;29;20416;-81
2022/08/10 07:16:29;;;;;;;1677.70;999.90;;;16.70;99.90;;;;;;4928013;29;20451;-84
2022/08/10 07:18:59;;;;;;;1890.43;999.90;;;16.80;99.90;;;;;;4926732;29;20400;-83
2022/08/10 07:21:30;;;;;;;1561.63;999.90;;;16.90;99.90;;;;;;4926428;29;20424;-83
2022/08/10 07:23:59;;;;;;;1206.72;999.90;;;16.90;99.90;;;;;;4940205;29;20437;-83
2022/08/10 07:26:29;;;;;;;1668.40;999.90;;;17.10;99.90;;;;;;4928893;29;20906;-83
2022/08/10 07:28:59;;;;;;;1692.72;999.90;;;17.10;99.90;;;;;;4928032;29;20913;-84
2022/08/10 07:31:27;;;;;;;1528.00;999.90;;;17.10;99.90;;;;;;4919490;29;20437;-83
2022/08/10 07:34:18;;;;;;;1840.68;999.90;;;17.20;99.90;;;;;;4919637;29;20425;-83
2022/08/10 07:37:01;;;;;;;1577.55;999.90;;;17.30;99.90;;;;;;4927944;29;20414;-82
2022/08/10 07:39:32;;;;;;;1497.32;999.90;;;17.40;99.90;;;;;;4927756;29;20411;-83
2022/08/10 07:42:22;;;;;;;1765.18;999.90;;;17.40;99.90;;;;;;4927868;29;20409;-83
2022/08/10 07:44:50;;;;;;;1390.40;999.90;;;17.40;99.90;;;;;;4927988;29;20430;-82
2022/08/10 07:47:32;;;;;;;1999.90;999.90;;;17.50;99.90;;;;;;4926251;29;20579;-83
2022/08/10 07:50:21;;;;;;;1430.88;999.90;;;17.40;99.90;;;;;;4927506;29;20463;-83
2022/08/10 07:52:52;;;;;;;1330.72;999.90;;;17.50;99.90;;;;;;4926531;29;20501;-83
2022/08/10 07:55:20;;;;;;;1367.00;999.90;;;17.50;99.90;;;;;;4925419;29;20403;-83
2022/08/10 07:58:10;;;;;;;1688.97;999.90;;;17.50;99.90;;;;;;4927360;29;20410;-83
2022/08/10 08:00:39;;;;;;;1468.82;999.90;;;17.50;99.90;;;;;;4940345;28;20416;-82
2022/08/10 08:03:09;;;;;;;1455.63;999.90;;;17.50;99.90;;;;;;4919789;29;20424;-82
2022/08/10 08:05:38;;;;;;;1529.43;999.90;;;17.70;99.90;;;;;;4925182;29;20878;-84
2022/08/10 08:08:27;;;;;;;1304.23;999.90;;;17.70;99.90;;;;;;4930332;29;20396;-84
2022/08/10 08:10:58;;;;;;;1521.30;999.90;;;17.80;99.90;;;;;;4918835;29;20463;-83
2022/08/10 08:13:27;;;;;;;1297.28;999.90;;;18.00;99.90;;;;;;4941437;29;20402;-84
2022/08/10 08:15:57;;;;;;;1301.60;999.90;;;17.90;99.90;;;;;;4941523;29;20407;-84
2022/08/10 08:18:47;;;;;;;1250.20;999.90;;;18.20;99.90;;;;;;4937070;29;20864;-84
2022/08/10 08:21:37;;;;;;;1302.20;999.90;;;18.20;99.90;;;;;;4924800;29;20403;-83
2022/08/10 08:24:26;;;;;;;1345.60;999.90;;;18.30;99.90;;;;;;4924561;29;20451;-83
2022/08/10 08:27:04;;;;;;;1416.70;999.90;;;18.40;99.90;;;;;;4918856;29;20412;-83
2022/08/10 08:29:38;;;;;;;1339.32;999.90;;;18.30;99.90;;;;;;4937421;28;20410;-84
2022/08/10 08:32:06;;;;;;;1252.83;999.90;;;18.20;99.90;;;;;;4941571;28;20809;-83
2022/08/10 08:34:38;;;;;;;1341.80;999.90;;;18.30;99.90;;;;;;4922400;29;20415;-84
2022/08/10 08:37:09;;;;;;;1441.30;999.90;;;18.40;99.90;;;;;;4941369;28;20440;-83
2022/08/10 08:39:37;;;;;;;1208.22;999.90;;;18.50;99.90;;;;;;4933025;28;20414;-83
2022/08/10 08:42:29;;;;;;;1360.03;999.90;;;18.70;99.90;;;;;;4926807;29;20433;-85
2022/08/10 08:45:24;;;;;;;1260.13;999.90;;;18.70;99.90;;;;;;4922443;29;20418;-84
2022/08/10 08:47:58;;;;;;;1339.18;999.90;;;18.90;99.90;;;;;;4924167;29;20411;-84
2022/08/10 08:51:03;;;;;;;1225.65;999.90;;;18.90;99.90;;;;;;4938909;28;20421;-84
2022/08/10 08:53:33;;;;;;;1383.03;999.90;;;18.90;99.90;;;;;;4926198;29;20406;-84
2022/08/10 08:56:30;;;;;;;1192.78;999.90;;;18.90;99.90;;;;;;4916542;29;20566;-84
2022/08/10 08:59:36;;;;;;;1566.10;999.90;;;18.90;99.90;;;;;;4924584;29;20403;-85
2022/08/10 09:02:22;;;;;;;1227.30;999.90;;;19.00;99.90;;;;;;4926259;29;20417;-84
2022/08/10 09:05:00;;;;;;;1444.03;999.90;;;19.00;99.90;;;;;;4923879;29;21002;-84
2022/08/10 09:07:56;;;;;;;1032.15;924.20;;;19.00;99.90;;;;;;4924031;29;20393;-84
2022/08/10 09:11:21;;;;;;;1130.80;999.90;;;19.00;99.90;;;;;;4925963;29;20939;-84
2022/08/10 09:13:57;;;;;;;1120.13;999.90;;;19.10;99.90;;;;;;4907150;29;20421;-83
2022/08/10 09:16:46;;;;;;;1269.20;999.90;;;19.20;99.90;;;;;;4940404;28;20407;-85
2022/08/10 09:19:32;;;;;;;1743.50;999.90;;;19.30;99.90;;;;;;4926136;29;20461;-83
2022/08/10 09:22:17;;;;;;;1089.97;975.88;;;19.40;99.90;;;;;;4926218;29;20467;-83
2022/08/10 09:25:09;;;;;;;1213.47;999.90;;;19.40;99.90;;;;;;4923892;29;20817;-85
2022/08/10 09:27:47;;;;;;;1091.57;978.92;;;19.40;99.90;;;;;;4921998;29;20465;-84
2022/08/10 09:30:27;;;;;;;1166.45;999.90;;;19.50;99.90;;;;;;4938762;28;20414;-83
2022/08/10 09:33:24;;;;;;;1199.10;999.90;;;19.40;99.90;;;;;;4924019;29;20445;-84
2022/08/10 09:36:36;;;;;;;1098.10;990.50;;;19.60;99.90;;;;;;4920839;29;20413;-84
2022/08/10 09:39:12;;;;;;;1109.43;999.85;;;19.80;99.90;;;;;;4938532;28;20494;-83
2022/08/10 09:42:25;;;;;;;1156.13;999.90;;;20.10;99.90;;;;;;4923984;29;20410;-82
2022/08/10 09:45:04;;;;;;;1126.10;999.90;;;20.20;99.90;;;;;;4925980;29;20484;-81
2022/08/10 09:47:59;;;;;;;1132.73;999.90;;;20.30;99.90;;;;;;4929419;29;20405;-82
2022/08/10 09:50:55;;;;;;;1269.03;999.90;;;20.30;99.90;;;;;;4919403;29;20436;-84
2022/08/10 09:54:16;;;;;;;1196.88;999.90;;;20.30;99.90;;;;;;4926008;29;20413;-83
2022/08/10 09:57:22;;;;;;;1072.13;963.47;;;20.30;99.90;;;;;;4933064;28;20411;-82
2022/08/10 10:00:13;;;;;;;1094.40;981.40;;;20.30;99.90;;;;;;4925120;29;20413;-83
2022/08/10 10:02:58;;;;;;;1134.90;999.90;;;20.40;99.90;;;;;;4925550;29;21027;-83
2022/08/10 10:05:45;;;;;;;1096.78;992.53;;;20.50;99.90;;;;;;4942021;28;20784;-83
2022/08/10 10:08:45;;;;;;;1200.37;999.90;;;20.30;99.90;;;;;;4943283;29;20400;-83
2022/08/10 10:11:32;;;;;;;1146.00;999.90;;;20.20;99.90;;;;;;4943918;28;20406;-83
2022/08/10 10:14:24;;;;;;;1198.85;999.90;;;20.20;99.90;;;;;;4920795;29;20433;-85
2022/08/10 10:17:15;;;;;;;1226.20;999.90;;;20.10;99.90;;;;;;4925043;29;20435;-83
2022/08/10 10:20:07;;;;;;;1696.03;999.90;;;19.90;99.90;;;;;;4939727;28;20414;-84
2022/08/10 10:23:10;;;;;;;1643.47;999.90;;;19.90;99.90;;;;;;4932756;29;20418;-85
2022/08/10 10:25:43;;;;;;;1272.18;999.90;;;19.70;99.90;;;;;;4941443;28;20418;-82
2022/08/10 10:28:34;;;;;;;1177.70;999.90;;;19.70;99.90;;;;;;4951545;28;20421;-82
2022/08/10 10:31:21;;;;;;;1502.35;999.90;;;19.70;99.90;;;;;;4932262;29;20414;-83
2022/08/10 10:34:08;;;;;;;1450.95;999.90;;;19.60;99.90;;;;;;4927281;29;20429;-84
2022/08/10 10:36:39;;;;;;;1517.75;999.90;;;19.60;99.90;;;;;;4945826;28;20512;-83
2022/08/10 10:39:08;;;;;;;1788.72;999.90;;;19.50;99.90;;;;;;4932820;29;20454;-83
2022/08/10 10:42:04;;;;;;;1618.30;999.90;;;19.50;99.90;;;;;;4942693;29;20396;-84
2022/08/10 10:45:09;;;;;;;1536.07;999.90;;;19.50;99.90;;;;;;4951457;28;20921;-83
2022/08/10 10:48:07;;;;;;;1450.33;999.90;;;19.50;99.90;;;;;;4943288;28;20414;-83
2022/08/10 10:50:59;;;;;;;1480.10;999.90;;;19.40;99.90;;;;;;4921616;29;20446;-84
2022/08/10 10:53:43;;;;;;;1154.38;999.90;;;19.50;99.90;;;;;;4924325;29;20419;-83
2022/08/10 10:56:24;;;;;;;1247.75;999.90;;;19.50;99.90;;;;;;4924509;29;20909;-83
2022/08/10 10:59:24;;;;;;;1241.32;999.90;;;19.80;99.90;;;;;;4926354;29;20420;-83
2022/08/10 11:02:31;;;;;;;1196.70;999.90;;;20.10;99.90;;;;;;4937012;28;20454;-84
2022/08/10 11:05:01;;;;;;;1202.93;999.90;;;20.10;99.90;;;;;;4950668;28;20432;-84
2022/08/10 11:07:39;;;;;;;1084.65;971.70;;;20.40;99.90;;;;;;4924174;29;20448;-82
2022/08/10 11:10:15;;;;;;;1110.30;999.88;;;20.60;99.90;;;;;;4929068;29;20414;-82
2022/08/10 11:13:11;;;;;;;1150.30;999.90;;;20.80;99.90;;;;;;4938647;29;20419;-84
2022/08/10 11:16:12;;;;;;;1802.32;999.90;;;21.10;99.90;;;;;;4934187;29;20476;-83
2022/08/10 11:19:12;;;;;;;1169.63;999.90;;;21.10;99.90;;;;;;4927710;29;20433;-84
2022/08/10 11:22:05;;;;;;;1042.90;944.50;;;21.00;99.90;;;;;;4930601;29;20802;-83
2022/08/10 11:24:47;;;;;;;1398.00;999.90;;;21.20;99.90;;;;;;4940130;29;20946;-84
2022/08/10 11:27:39;;;;;;;1271.82;999.90;;;21.10;99.90;;;;;;4919763;29;20858;-84
2022/08/10 11:30:12;;;;;;;1481.20;999.90;;;20.70;99.90;;;;;;4925875;29;20910;-83
2022/08/10 11:32:55;;;;;;;1254.68;999.90;;;20.70;99.90;;;;;;4932981;29;20414;-82
2022/08/10 11:35:39;;;;;;;1457.10;999.90;;;20.60;99.90;;;;;;4930549;29;20429;-83
2022/08/10 11:38:29;;;;;;;1411.05;999.90;;;20.50;99.90;;;;;;4927269;29;20394;-82
2022/08/10 11:41:47;;;;;;;1252.20;999.90;;;20.30;99.90;;;;;;4938798;29;20398;-84
2022/08/10 11:45:07;;;;;;;1544.00;999.90;;;20.20;99.90;;;;;;4939136;29;20461;-83
2022/08/10 11:47:42;;;;;;;1951.20;999.90;;;20.10;99.90;;;;;;4931537;29;20386;-83
2022/08/10 11:50:26;;;;;;;1601.10;999.90;;;20.00;99.90;;;;;;4929734;29;20416;-84
2022/08/10 11:53:16;;;;;;;1847.22;999.90;;;20.00;99.90;;;;;;4936342;28;20405;-83
2022/08/10 11:55:49;;;;;;;1466.78;999.90;;;20.00;99.90;;;;;;4933276;29;20412;-82
2022/08/10 12:01:09;;;;;;;1228.13;999.90;;;20.70;99.90;;;;;;4934060;28;20752;-82
2022/08/10 12:03:40;;;;;;;1138.40;999.90;;;21.20;99.90;;;;;;4916357;29;20449;-84
2022/08/10 12:06:12;;;;;;;1038.32;947.80;;;21.40;99.90;;;;;;4921013;29;20415;-83
2022/08/10 12:08:42;;;;;;;1110.88;999.90;;;21.40;99.90;;;;;;4922577;29;20409;-83
2022/08/10 12:11:30;;;;;;;1066.65;969.97;;;21.30;99.90;;;;;;4927007;29;20427;-84
2022/08/10 12:14:07;;;;;;;1054.32;966.55;;;21.40;99.90;;;;;;4923473;29;20473;-84
2022/08/10 12:16:54;;;;;;;986.65;892.97;;;21.60;99.90;;;;;;4926521;29;20413;-84
2022/08/10 12:19:53;;;;;;;1025.32;935.35;;;21.90;99.90;;;;;;4930898;29;20759;-84
2022/08/10 12:22:42;;;;;;;1009.87;926.37;;;22.10;99.90;;;;;;4922906;29;20424;-83
2022/08/10 12:25:32;;;;;;;1096.25;996.53;;;22.10;99.90;;;;;;4918946;29;20431;-84
2022/08/10 12:28:49;;;;;;;1056.50;972.10;;;22.40;99.90;;;;;;4922086;29;20965;-83
2022/08/10 12:31:45;;;;;;;973.47;880.70;;;22.40;99.90;;;;;;4920764;29;20487;-85
2022/08/10 12:34:35;;;;;;;1106.43;998.33;;;22.40;99.90;;;;;;4921019;29;20886;-83
2022/08/10 12:37:26;;;;;;;1144.65;999.90;;;22.60;99.90;;;;;;4920581;29;20430;-85
2022/08/10 12:40:14;;;;;;;1066.68;971.95;;;22.60;99.90;;;;;;4917705;29;20495;-83
2022/08/10 12:43:14;;;;;;;911.33;834.55;;;22.90;99.90;;;;;;4920720;29;20407;-83
2022/08/10 12:46:17;;;;;;;841.23;776.93;;;22.90;99.90;;;;;;4924554;29;20513;-83
2022/08/10 12:49:06;;;;;;;1224.80;999.90;;;22.50;99.90;;;;;;4919533;29;20426;-83
2022/08/10 12:51:45;;;;;;;1223.63;999.90;;;22.20;99.90;;;;;;4940034;29;20481;-82
2022/08/10 12:54:19;;;;;;;1404.30;999.90;;;22.00;99.90;;;;;;4927229;29;20398;-85
2022/08/10 12:57:01;;;;;;;1696.07;999.90;;;21.80;99.90;;;;;;4933119;29;20410;-83
2022/08/10 12:59:31;;;;;;;1198.18;999.90;;;21.60;99.90;;;;;;4923475;29;20467;-83
2022/08/10 13:01:59;;;;;;;1469.15;999.90;;;21.50;99.90;;;;;;4926274;29;20416;-83
2022/08/10 13:04:41;;;;;;;1903.30;999.90;;;21.40;99.90;;;;;;4923635;29;20414;-83
2022/08/10 13:07:09;;;;;;;1343.10;999.90;;;21.40;99.90;;;;;;4920022;29;20408;-83
2022/08/10 13:10:04;;;;;;;1600.03;999.90;;;21.30;99.90;;;;;;4921444;29;20881;-83
2022/08/10 13:12:34;;;;;;;1322.63;999.90;;;21.30;99.90;;;;;;4925524;29;20411;-83